createdAt,value
2023-05-19T00:02:49.401Z,22.5
2023-05-19T00:08:41.254Z,22.4
2023-05-19T00:14:17.816Z,22.3
2023-05-19T00:20:10.170Z,22.3
2023-05-19T00:26:02.428Z,22.2
2023-05-19T00:31:53.751Z,22.1
2023-05-19T00:37:45.694Z,22.1
2023-05-19T00:43:22.366Z,22.1
2023-05-19T00:48:58.907Z,22
2023-05-19T00:54:35.544Z,22
2023-05-19T01:00:12.376Z,21.9
2023-05-19T01:06:05.350Z,21.9
2023-05-19T01:11:57.131Z,21.9
2023-05-19T01:17:33.227Z,21.8
2023-05-19T01:23:25.516Z,21.8
2023-05-19T01:29:01.306Z,21.7
2023-05-19T01:34:22.919Z,21.7
2023-05-19T01:39:58.634Z,21.6
2023-05-19T01:45:35.089Z,21.6
2023-05-19T01:51:13.285Z,21.5
2023-05-19T01:57:04.571Z,21.4
2023-05-19T02:02:40.992Z,21.4
2023-05-19T02:08:32.543Z,21.4
2023-05-19T02:14:08.327Z,21.3
2023-05-19T02:20:01.146Z,21.3
2023-05-19T02:25:36.894Z,21.2
2023-05-19T02:36:50.004Z,21.1
2023-05-19T02:42:41.909Z,21.1
2023-05-19T02:48:02.580Z,20.9
2023-05-19T02:53:23.828Z,20.9
2023-05-19T02:59:15.750Z,20.9
2023-05-19T03:04:52.865Z,20.8
2023-05-19T03:10:44.942Z,20.8
2023-05-19T03:16:21.123Z,20.7
2023-05-19T03:22:13.099Z,20.7
2023-05-19T03:28:04.471Z,20.6
2023-05-19T03:33:58.211Z,20.6
2023-05-19T03:39:49.225Z,20.6
2023-05-19T03:45:41.286Z,20.5
2023-05-19T03:51:32.881Z,20.5
2023-05-19T03:57:08.632Z,20.4
2023-05-19T04:03:01.299Z,20.4
2023-05-19T04:08:53.117Z,20.4
2023-05-19T04:14:43.670Z,20.4
2023-05-19T04:20:36.485Z,20.3
2023-05-19T04:26:27.966Z,20.3
2023-05-19T04:32:19.173Z,20.3
2023-05-19T04:37:58.841Z,20.3
2023-05-19T04:43:50.923Z,20.3
2023-05-19T04:49:43.278Z,20.3
2023-05-19T04:55:36.493Z,20.3
2023-05-19T05:01:12.388Z,20.3
2023-05-19T05:07:04.494Z,20.3
2023-05-19T05:12:56.088Z,20.3
2023-05-19T05:18:48.241Z,20.3
2023-05-19T05:24:39.721Z,20.3
2023-05-19T05:30:16.271Z,20.3
2023-05-19T05:35:38.454Z,20.4
2023-05-19T05:41:29.308Z,20.4
2023-05-19T05:47:08.143Z,20.4
2023-05-19T05:53:12.135Z,20.4
2023-05-19T05:58:47.980Z,20.4
2023-05-19T06:04:24.825Z,20.4
2023-05-19T06:10:02.249Z,20.4
2023-05-19T06:15:54.265Z,20.4
2023-05-19T06:21:16.197Z,20.4
2023-05-19T06:27:08.929Z,20.4
2023-05-19T06:32:46.424Z,20.4
2023-05-19T06:38:41.472Z,20.3
2023-05-19T06:44:19.857Z,20.3
2023-05-19T06:49:56.994Z,20.3
2023-05-19T06:55:35.641Z,20.3
2023-05-19T07:01:19.161Z,20.3
2023-05-19T07:07:14.445Z,20.3
2023-05-19T07:12:52.343Z,20.4
2023-05-19T07:18:13.989Z,20.4
2023-05-19T07:23:34.089Z,20.4
2023-05-19T07:28:57.902Z,20.4
2023-05-19T07:34:34.701Z,20.4
2023-05-19T07:40:11.643Z,20.5
2023-05-19T07:45:17.444Z,20.4
2023-05-19T07:50:57.134Z,20.5
2023-05-19T07:56:17.811Z,20.5
2023-05-19T08:01:39.154Z,20.6
2023-05-19T08:07:16.518Z,20.6
2023-05-19T08:12:51.896Z,20.6
2023-05-19T08:18:28.690Z,20.5
2023-05-19T08:24:05.087Z,20.6
2023-05-19T08:29:40.361Z,20.6
2023-05-19T08:35:16.546Z,20.6
2023-05-19T08:40:37.531Z,20.6
2023-05-19T08:45:58.420Z,20.6
2023-05-19T08:51:37.442Z,20.6
2023-05-19T08:57:28.838Z,20.6
2023-05-19T09:03:23.832Z,20.6
2023-05-19T09:09:02.325Z,20.5
2023-05-19T09:14:38.873Z,20.6
2023-05-19T09:20:18.406Z,20.6
2023-05-19T09:25:55.210Z,20.5
2023-05-19T09:31:31.628Z,20.6
2023-05-19T09:37:08.017Z,20.5
2023-05-19T09:42:44.410Z,20.6
2023-05-19T09:48:37.166Z,20.6
2023-05-19T09:53:58.065Z,20.5
2023-05-19T09:59:37.610Z,20.6
2023-05-19T10:05:31.786Z,20.5
2023-05-19T10:11:08.299Z,20.5
2023-05-19T10:17:01.153Z,20.5
2023-05-19T10:22:22.336Z,20.5
2023-05-19T10:28:14.055Z,20.5
2023-05-19T10:34:07.963Z,20.5
2023-05-19T10:39:45.135Z,20.4
2023-05-19T10:45:22.235Z,20.4
2023-05-19T10:51:14.097Z,20.4
2023-05-19T10:57:07.029Z,20.4
2023-05-19T11:02:45.358Z,20.4
2023-05-19T11:08:43.499Z,20.4
2023-05-19T11:14:49.231Z,20.4
2023-05-19T11:20:41.657Z,20.4
2023-05-19T11:26:36.900Z,20.4
2023-05-19T11:32:29.953Z,20.4
2023-05-19T11:38:22.560Z,20.4
2023-05-19T11:44:14.706Z,20.4
2023-05-19T11:50:26.155Z,20.4
2023-05-19T11:56:21.205Z,20.4
2023-05-19T12:02:26.962Z,20.4
2023-05-19T12:08:26.112Z,20.4
2023-05-19T12:14:19.552Z,20.4
2023-05-19T12:20:13.178Z,20.4
2023-05-19T12:25:57.821Z,20.4
2023-05-19T12:31:49.841Z,20.4
2023-05-19T12:37:43.235Z,20.4
2023-05-19T12:43:35.849Z,20.4
2023-05-19T12:49:27.836Z,20.4
2023-05-19T12:55:23.275Z,20.4
2023-05-19T13:01:32.249Z,20.4
2023-05-19T13:07:26.018Z,20.4
2023-05-19T13:13:18.858Z,20.3
2023-05-19T13:19:24.172Z,20.3
2023-05-19T13:25:01.771Z,20.3
2023-05-19T13:30:38.790Z,20.4
2023-05-19T13:36:15.409Z,20.3
2023-05-19T13:42:07.819Z,20.3
2023-05-19T13:48:11.331Z,20.3
2023-05-19T13:54:03.525Z,20.3
2023-05-19T14:00:09.900Z,20.3
2023-05-19T14:05:48.249Z,20.3
2023-05-19T14:11:25.774Z,20.3
2023-05-19T14:17:45.804Z,20.3
2023-05-19T14:23:40.702Z,20.3
2023-05-19T14:29:33.759Z,20.3
2023-05-19T14:35:15.490Z,20.3
2023-05-19T14:41:07.542Z,20.3
2023-05-19T14:46:44.401Z,20.2
2023-05-19T14:52:24.416Z,20.3
2023-05-19T14:58:03.443Z,20.3
2023-05-19T15:03:52.814Z,20.3
2023-05-19T15:09:32.838Z,20.3
2023-05-19T15:15:25.240Z,20.3
2023-05-19T15:21:36.290Z,20.3
2023-05-19T15:27:27.347Z,20.4
2023-05-19T15:33:04.177Z,20.4
2023-05-19T15:38:40.434Z,20.4
2023-05-19T15:44:31.272Z,20.4
2023-05-19T15:50:23.960Z,20.5
2023-05-19T15:56:15.558Z,20.5
2023-05-19T16:01:52.859Z,20.5
2023-05-19T16:07:30.867Z,20.6
2023-05-19T16:13:22.853Z,20.6
2023-05-19T16:19:15.461Z,20.6
2023-05-19T16:24:52.474Z,20.6
2023-05-19T16:30:28.661Z,20.6
2023-05-19T16:36:05.273Z,20.6
2023-05-19T16:41:42.862Z,20.6
2023-05-19T16:47:20.793Z,20.6
2023-05-19T16:52:57.224Z,20.6
2023-05-19T16:58:49.142Z,20.6
2023-05-19T17:04:29.346Z,20.6
2023-05-19T17:09:35.073Z,20.6
2023-05-19T17:15:12.747Z,20.6
2023-05-19T17:20:49.589Z,20.5
2023-05-19T17:26:25.251Z,20.5
2023-05-19T17:32:17.476Z,20.5
2023-05-19T17:37:56.698Z,20.5
2023-05-19T17:43:32.184Z,20.5
2023-05-19T17:49:23.882Z,20.5
2023-05-19T17:54:44.632Z,20.5
2023-05-19T17:59:49.636Z,20.5
2023-05-19T18:05:27.376Z,20.4
2023-05-19T18:11:07.019Z,20.5
2023-05-19T18:16:42.668Z,20.4
2023-05-19T18:22:19.761Z,20.4
2023-05-19T18:27:56.117Z,20.4
2023-05-19T18:33:16.719Z,20.4
2023-05-19T18:38:37.014Z,20.4
2023-05-19T18:43:57.871Z,20.4
2023-05-19T18:49:03.227Z,20.4
2023-05-19T18:54:08.267Z,20.4
2023-05-19T18:59:14.771Z,20.4
2023-05-19T19:04:19.927Z,20.4
2023-05-19T19:09:40.466Z,20.4
2023-05-19T19:15:18.924Z,20.4
2023-05-19T19:20:54.997Z,20.4
2023-05-19T19:26:30.887Z,20.4
2023-05-19T19:32:07.634Z,20.4
2023-05-19T19:37:45.507Z,20.4
2023-05-19T19:43:22.089Z,20.4
2023-05-19T19:48:59.069Z,20.4
2023-05-19T19:54:50.068Z,20.4
2023-05-19T20:00:10.177Z,20.4
2023-05-19T20:06:22.040Z,20.3
2023-05-19T20:11:42.114Z,20.3
2023-05-19T20:17:19.848Z,20.3
2023-05-19T20:22:58.503Z,20.3
2023-05-19T20:28:56.923Z,20.3
2023-05-19T20:34:34.894Z,20.3
2023-05-19T20:39:55.356Z,20.3
2023-05-19T20:45:31.364Z,20.3
2023-05-19T20:51:08.007Z,20.3
2023-05-19T20:56:44.491Z,20.3
2023-05-19T21:02:20.023Z,20.3
2023-05-19T21:08:12.457Z,20.3
2023-05-19T21:13:48.743Z,20.3
2023-05-19T21:19:24.350Z,20.3
2023-05-19T21:25:01.065Z,20.3
2023-05-19T21:30:52.792Z,20.3
2023-05-19T21:36:43.599Z,20.3
2023-05-19T21:42:31.221Z,20.3
2023-05-19T21:48:25.673Z,20.3
2023-05-19T21:54:01.169Z,20.3
2023-05-19T21:59:52.878Z,20.3
2023-05-19T22:05:45.796Z,20.2
2023-05-19T22:11:36.306Z,20.2
2023-05-19T22:17:27.260Z,20.2
2023-05-19T22:23:17.016Z,20.2
2023-05-19T22:29:08.562Z,20.2
2023-05-19T22:35:03.169Z,20.2
2023-05-19T22:40:55.662Z,20.2
2023-05-19T22:46:48.021Z,20.2
2023-05-19T22:52:42.495Z,20.2
2023-05-19T22:58:35.003Z,20.2
2023-05-19T23:04:26.106Z,20.1
2023-05-19T23:10:16.613Z,20.1
2023-05-19T23:16:08.965Z,20.1
2023-05-19T23:22:01.200Z,20.2
2023-05-19T23:27:53.233Z,20.1
2023-05-19T23:33:47.353Z,20.1
2023-05-19T23:39:38.204Z,20.1
2023-05-19T23:45:29.338Z,20.1
2023-05-19T23:51:21.294Z,20.1
2023-05-19T23:57:13.023Z,20.1
